createdAt,value
2022-08-25T00:03:29.554Z,0.88715
2022-08-25T00:08:37.984Z,0
2022-08-25T00:13:39.707Z,0.88715
2022-08-25T00:18:42.124Z,0
2022-08-25T00:23:44.103Z,0
2022-08-25T00:28:46.074Z,0.88715
2022-08-25T00:33:48.352Z,0
2022-08-25T00:38:50.371Z,0
2022-08-25T00:43:52.836Z,0
2022-08-25T00:48:54.835Z,0
2022-08-25T00:53:57.090Z,0
2022-08-25T00:58:59.609Z,0.88715
2022-08-25T01:04:01.953Z,0
2022-08-25T01:09:03.762Z,0
2022-08-25T01:14:05.528Z,0
2022-08-25T01:19:07.876Z,0
2022-08-25T01:24:10.095Z,0
2022-08-25T01:29:12.410Z,0
2022-08-25T01:34:14.413Z,0
2022-08-25T01:39:16.490Z,0.88715
2022-08-25T01:44:18.776Z,0
2022-08-25T01:49:21.310Z,0
2022-08-25T01:54:23.278Z,0.88715
2022-08-25T01:59:25.668Z,0
2022-08-25T02:04:28.227Z,0.88715
2022-08-25T02:09:30.510Z,0.88715
2022-08-25T02:14:32.310Z,0.88715
2022-08-25T02:19:34.673Z,0
2022-08-25T02:24:36.429Z,0
2022-08-25T02:29:38.639Z,0
2022-08-25T02:34:40.909Z,0.88715
2022-08-25T02:39:43.132Z,0.88715
2022-08-25T02:44:45.186Z,0
2022-08-25T02:49:46.854Z,0
2022-08-25T02:54:48.645Z,0
2022-08-25T02:59:50.614Z,0.88715
2022-08-25T03:04:53.147Z,0
2022-08-25T03:09:57.355Z,0.88715
2022-08-25T03:14:59.230Z,0
2022-08-25T03:20:01.337Z,0.88715
2022-08-25T03:25:03.114Z,0
2022-08-25T03:30:05.211Z,0
2022-08-25T03:35:07.259Z,0
2022-08-25T03:40:09.459Z,0
2022-08-25T03:45:17.611Z,0
2022-08-25T03:50:19.835Z,0.88715
2022-08-25T03:55:21.854Z,0.88715
2022-08-25T04:00:23.831Z,0
2022-08-25T04:05:26.765Z,0.4148
2022-08-25T04:10:28.686Z,1.2444
2022-08-25T04:15:30.430Z,2.4888
2022-08-25T04:20:32.597Z,4.4443
2022-08-25T04:25:34.160Z,15.7867
2022-08-25T04:30:35.830Z,30.4667
2022-08-25T04:35:40.861Z,49.37005
2022-08-25T04:40:42.527Z,85.3874
2022-08-25T04:45:44.105Z,115.17145
2022-08-25T04:50:46.593Z,153.1436
2022-08-25T04:55:48.390Z,195.02535
2022-08-25T05:00:50.308Z,222.1168
2022-08-25T05:05:52.395Z,252.14045
2022-08-25T05:10:53.999Z,282.533
2022-08-25T05:15:55.729Z,307.4852
2022-08-25T05:20:57.448Z,343.63185
2022-08-25T05:25:59.099Z,375.1311
2022-08-25T05:31:02.614Z,398.92145
2022-08-25T05:36:04.117Z,425.21995
2022-08-25T05:41:06.110Z,456.66405
2022-08-25T05:46:08.076Z,491.90745
2022-08-25T05:51:10.821Z,520.78825
2022-08-25T05:56:12.711Z,538.7332
2022-08-25T06:01:14.711Z,567.31925
2022-08-25T06:06:16.879Z,598.65305
2022-08-25T06:11:18.671Z,642.5276
2022-08-25T06:16:20.726Z,686.64175
2022-08-25T06:21:23.629Z,719.7459
2022-08-25T06:26:25.610Z,740.9178
2022-08-25T06:31:27.592Z,757.25785
2022-08-25T06:36:29.903Z,786.1938
2022-08-25T06:41:36.661Z,804.48865
2022-08-25T06:46:39.130Z,828.96165
2022-08-25T06:51:41.133Z,844.87765
2022-08-25T06:56:42.608Z,859.2629
2022-08-25T07:01:44.685Z,884.7133
2022-08-25T07:06:46.697Z,906.2541
2022-08-25T07:11:48.640Z,923.33195
2022-08-25T07:16:50.586Z,949.15125
2022-08-25T07:21:52.668Z,967.52025
2022-08-25T07:26:54.554Z,993.33955
2022-08-25T07:31:56.524Z,1017.09375
2022-08-25T07:36:58.569Z,1045.0713
2022-08-25T07:42:00.064Z,1069.9322
2022-08-25T07:47:03.641Z,1096.69275
2022-08-25T07:52:06.795Z,1118.38185
2022-08-25T07:57:09.366Z,1140.495
2022-08-25T08:02:16.107Z,1168.49155
2022-08-25T08:07:20.872Z,1192.39405
2022-08-25T08:12:25.182Z,1229.61125
2022-08-25T08:17:26.644Z,1259.13855
2022-08-25T08:22:29.016Z,1291.96695
2022-08-25T08:27:30.941Z,1316.23835
2022-08-25T08:33:05.862Z,1335.73305
2022-08-25T08:38:16.144Z,1372.60035
2022-08-25T08:43:21.808Z,1411.79135
2022-08-25T08:48:27.090Z,1431.28605
2022-08-25T08:53:34.254Z,1466.8622
2022-08-25T08:58:36.271Z,1506.4031
2022-08-25T09:03:39.644Z,1539.1022
2022-08-25T09:08:44.562Z,1579.012
2022-08-25T09:13:46.595Z,1617.5755
2022-08-25T09:18:50.958Z,1655.1806
2022-08-25T09:23:54.605Z,1687.19705
2022-08-25T09:28:56.566Z,1725.5761
2022-08-25T09:33:58.319Z,1770.9814
2022-08-25T09:39:00.111Z,1808.38305
2022-08-25T09:44:01.813Z,1851.96285
2022-08-25T09:49:03.605Z,1889.18005
2022-08-25T09:54:10.708Z,1930.2327
2022-08-25T09:59:15.675Z,1976.0069
2022-08-25T10:04:20.737Z,2022.0207
2022-08-25T10:09:23.042Z,2048.3382
2022-08-25T10:14:24.859Z,2082.06985
2022-08-25T10:19:26.807Z,2131.73465
2022-08-25T10:24:30.019Z,2170.4636
2022-08-25T10:29:32.643Z,2216.9566
2022-08-25T10:34:35.864Z,2238.07335
2022-08-25T10:39:40.525Z,2269.7209
2022-08-25T10:44:42.831Z,2337.07205
2022-08-25T10:49:44.628Z,2373.6599
2022-08-25T10:54:47.227Z,2431.86455
2022-08-25T10:59:49.578Z,2488.6659
2022-08-25T11:04:51.474Z,2524.57295
2022-08-25T11:09:53.509Z,2535.988
2022-08-25T11:14:55.661Z,2512.4924
2022-08-25T11:19:57.549Z,2548.12185
2022-08-25T11:24:59.704Z,2537.2773
2022-08-25T11:30:01.497Z,2562.2105
2022-08-25T11:35:03.474Z,2529.60455
2022-08-25T11:40:05.596Z,2500.11525
2022-08-25T11:45:10.928Z,2523.94175
2022-08-25T11:50:13.036Z,2551.6037
2022-08-25T11:55:15.194Z,2542.1606
2022-08-25T12:00:17.162Z,2568.79
2022-08-25T12:05:19.326Z,2546.80615
2022-08-25T12:10:22.671Z,2527.20115
2022-08-25T12:15:25.000Z,2560.7275
2022-08-25T12:20:26.828Z,2547.54025
2022-08-25T12:25:29.074Z,2519.13865
2022-08-25T12:30:36.705Z,2531.69655
2022-08-25T12:35:38.949Z,2533.06
2022-08-25T12:40:42.004Z,2492.3021
2022-08-25T12:45:43.803Z,2457.169
2022-08-25T12:50:45.679Z,2423.2719
2022-08-25T12:55:47.506Z,2411.92915
2022-08-25T13:00:52.684Z,2378.2165
2022-08-25T13:05:54.694Z,2353.2453
2022-08-25T13:10:57.735Z,2303.98555
2022-08-25T13:15:59.370Z,2226.2519
2022-08-25T13:21:01.225Z,2203.2355
2022-08-25T13:26:04.170Z,2133.1366
2022-08-25T13:31:06.598Z,2052.6362
2022-08-25T13:36:08.616Z,1987.4243
2022-08-25T13:41:11.982Z,1945.76315
2022-08-25T13:46:14.021Z,1847.0972
2022-08-25T13:51:17.135Z,1764.45755
2022-08-25T13:56:19.159Z,1706.6408
2022-08-25T14:01:47.213Z,1651.40635
2022-08-25T14:06:51.180Z,1571.0904
2022-08-25T14:11:53.028Z,1493.70665
2022-08-25T14:16:57.324Z,1413.70445
2022-08-25T14:21:59.580Z,1337.48255
2022-08-25T14:27:02.019Z,1262.47765
2022-08-25T14:32:03.738Z,1155.4943
2022-08-25T14:37:05.678Z,1048.0869
2022-08-25T14:42:10.320Z,947.1524
2022-08-25T14:47:12.097Z,848.302
2022-08-25T14:52:13.877Z,718.2471
2022-08-25T14:57:16.258Z,595.034
2022-08-25T15:02:18.381Z,476.65275
2022-08-25T15:07:21.851Z,359.06445
2022-08-25T15:12:45.961Z,279.98265
2022-08-25T15:17:49.437Z,201.87825
2022-08-25T15:22:52.465Z,154.7209
2022-08-25T15:27:54.428Z,114.3667
2022-08-25T15:32:56.295Z,101.80345
2022-08-25T15:37:58.563Z,83.8395
2022-08-25T15:43:00.121Z,62.7779
2022-08-25T15:48:03.241Z,38.3049
2022-08-25T15:53:05.276Z,21.35635
2022-08-25T15:58:12.375Z,9.00005
2022-08-25T16:03:14.370Z,3.8517
2022-08-25T16:08:19.207Z,1.8962
2022-08-25T16:13:21.756Z,1.3463
2022-08-25T16:18:23.943Z,0
2022-08-25T16:23:25.734Z,0.88715
2022-08-25T16:28:27.963Z,0.88715
2022-08-25T16:33:29.822Z,0.88715
2022-08-25T16:38:34.092Z,0.88715
2022-08-25T16:43:35.632Z,0
2022-08-25T16:48:37.994Z,0.88715
2022-08-25T16:53:39.951Z,0
2022-08-25T16:58:42.292Z,0
2022-08-25T17:03:47.253Z,0
2022-08-25T17:08:48.740Z,0.88715
2022-08-25T17:13:50.638Z,0.88715
2022-08-25T17:18:52.347Z,0
2022-08-25T17:23:56.598Z,0.88715
2022-08-25T17:28:59.397Z,0
2022-08-25T17:34:01.087Z,0
2022-08-25T17:39:02.754Z,0
2022-08-25T17:44:04.742Z,0
2022-08-25T17:49:06.674Z,0.88715
2022-08-25T17:54:08.107Z,0
2022-08-25T17:59:10.177Z,0.88715
2022-08-25T18:04:18.009Z,0.88715
2022-08-25T18:09:21.641Z,0.88715
2022-08-25T18:14:25.586Z,0.88715
2022-08-25T18:19:27.771Z,0.88715
2022-08-25T18:24:29.653Z,0
2022-08-25T18:29:32.452Z,0.88715
2022-08-25T18:34:34.221Z,0
2022-08-25T18:39:37.673Z,0.88715
2022-08-25T18:44:39.230Z,0.88715
2022-08-25T18:49:41.324Z,0.88715
2022-08-25T18:54:43.246Z,0.88715
2022-08-25T18:59:44.877Z,0
2022-08-25T19:04:46.954Z,0
2022-08-25T19:09:48.711Z,0.88715
2022-08-25T19:14:52.987Z,0
2022-08-25T19:19:54.833Z,0
2022-08-25T19:24:56.775Z,0.88715
2022-08-25T19:29:58.855Z,0
2022-08-25T19:35:00.798Z,0
2022-08-25T19:40:02.727Z,0.88715
2022-08-25T19:45:06.282Z,0.88715
2022-08-25T19:50:08.629Z,0.88715
2022-08-25T19:55:11.346Z,0.88715
2022-08-25T20:00:14.037Z,0
2022-08-25T20:05:15.847Z,0
2022-08-25T20:10:26.351Z,0
2022-08-25T20:15:29.289Z,0
2022-08-25T20:20:38.737Z,0
2022-08-25T20:25:41.334Z,0.88715
2022-08-25T20:30:43.299Z,0.88715
2022-08-25T20:35:44.929Z,0
2022-08-25T20:40:47.206Z,0
2022-08-25T20:45:50.524Z,0.88715
2022-08-25T20:50:57.433Z,0
2022-08-25T20:55:59.306Z,0.88715
2022-08-25T21:01:01.232Z,0
2022-08-25T21:06:02.730Z,0.88715
2022-08-25T21:11:04.157Z,0.88715
2022-08-25T21:16:06.206Z,0
2022-08-25T21:21:07.849Z,0
2022-08-25T21:26:10.607Z,0.88715
2022-08-25T21:31:13.720Z,0.88715
2022-08-25T21:36:15.447Z,0
2022-08-25T21:41:16.917Z,0
2022-08-25T21:46:18.643Z,0
2022-08-25T21:51:20.135Z,0
2022-08-25T21:56:23.647Z,0.88715
2022-08-25T22:01:28.918Z,0
2022-08-25T22:06:31.087Z,0
2022-08-25T22:11:33.934Z,0.88715
2022-08-25T22:16:38.113Z,0.88715
2022-08-25T22:21:39.725Z,0
2022-08-25T22:26:41.344Z,0.88715
2022-08-25T22:31:43.761Z,0.88715
2022-08-25T22:36:45.463Z,0
2022-08-25T22:41:48.830Z,0
2022-08-25T22:46:50.766Z,0
2022-08-25T22:51:53.737Z,0.88715
2022-08-25T22:56:57.158Z,0
2022-08-25T23:01:59.643Z,0.88715
2022-08-25T23:07:01.418Z,0.88715
2022-08-25T23:12:03.414Z,0
2022-08-25T23:17:07.458Z,0
2022-08-25T23:22:09.455Z,0
2022-08-25T23:27:12.497Z,0
2022-08-25T23:32:14.653Z,0
2022-08-25T23:37:18.594Z,0.88715
2022-08-25T23:42:20.894Z,0.88715
2022-08-25T23:47:22.950Z,0
2022-08-25T23:52:24.930Z,0
2022-08-25T23:57:26.808Z,0
